Time;durP1;ratioP1;P1;durP2;ratioP2;P2;SDS_P1;SDS_P2;PMS_P1;PMS_P2;Temp;Humidity;BMP_temperature;BMP_pressure;BME280_temperature;BME280_humidity;BME280_pressure;Samples;Min_cycle;Max_cycle;Signal;HPM_P1;HPM_P2
2021/12/24 00:00:33;;;;;;;;;;;;;;;17.33;44.16;100213.09;5042784;28;19916;-51
2021/12/24 00:02:58;;;;;;;;;;;;;;;17.30;44.19;100210.78;5041984;28;19968;-48
2021/12/24 00:05:24;;;;;;;;;;;;;;;17.32;44.33;100214.97;5041364;28;19913;-48
2021/12/24 00:07:49;;;;;;;;;;;;;;;17.31;44.12;100215.97;5042609;28;19913;-51
2021/12/24 00:10:14;;;;;;;;;;;;;;;17.32;44.30;100222.19;5042650;28;19913;-49
2021/12/24 00:12:45;;;;;;;;;;;;;;;17.31;44.26;100228.59;5042243;28;19917;-49
2021/12/24 00:15:49;;;;;;;;;;;;;;;17.31;44.18;100220.53;5042415;28;19921;-48
2021/12/24 00:18:36;;;;;;;;;;;;;;;17.30;44.33;100213.47;5041567;28;19925;-48
2021/12/24 00:37:19;;;;;;;;;;;;;;;17.28;44.23;100204.75;5042460;28;19975;-47
2021/12/24 00:39:53;;;;;;;;;;;;;;;17.27;44.44;100206.59;5042434;28;19913;-47
2021/12/24 00:42:18;;;;;;;;;;;;;;;17.27;44.32;100195.00;5044573;28;20352;-50
2021/12/24 00:44:43;;;;;;;;;;;;;;;17.27;44.37;100195.00;5045577;28;19917;-51
2021/12/24 00:47:08;;;;;;;;;;;;;;;17.26;44.18;100204.94;5045410;28;19966;-49
2021/12/24 00:49:33;;;;;;;;;;;;;;;17.25;44.27;100211.31;5045855;28;19913;-51
2021/12/24 00:52:20;;;;;;;;;;;;;;;17.25;44.27;100211.31;5046041;28;20000;-49
2021/12/24 00:57:30;;;;;;;;;;;;;;;17.26;44.28;100206.78;5045655;28;19989;-47
2021/12/24 00:59:55;;;;;;;;;;;;;;;17.26;44.28;100201.41;5045615;28;19913;-49
2021/12/24 01:02:20;;;;;;;;;;;;;;;17.23;44.31;100198.03;5025902;28;20008;-51
2021/12/24 01:04:46;;;;;;;;;;;;;;;17.23;44.19;100195.34;5025689;28;19929;-50
2021/12/24 01:07:11;;;;;;;;;;;;;;;17.24;44.25;100197.03;5025864;28;19939;-52
2021/12/24 01:09:36;;;;;;;;;;;;;;;17.23;44.35;100195.34;5025835;28;19929;-47
2021/12/24 01:12:01;;;;;;;;;;;;;;;17.24;44.41;100188.13;5031349;28;19976;-48
2021/12/24 01:14:29;;;;;;;;;;;;;;;17.24;44.25;100190.81;5045207;28;19917;-48
2021/12/24 01:19:41;;;;;;;;;;;;;;;17.24;44.47;100193.50;5045525;28;19947;-50
2021/12/24 01:22:52;;;;;;;;;;;;;;;17.23;44.38;100189.16;5059840;28;19939;-51
2021/12/24 01:38:13;;;;;;;;;;;;;;;17.22;44.23;100184.78;5025270;28;20004;-50
2021/12/24 01:43:04;;;;;;;;;;;;;;;17.21;44.49;100178.59;5041039;28;19957;-51
2021/12/24 01:45:33;;;;;;;;;;;;;;;17.21;44.31;100177.75;5044877;28;19965;-51
2021/12/24 01:47:59;;;;;;;;;;;;;;;17.22;44.41;100179.41;5044161;28;19913;-51
2021/12/24 01:50:25;;;;;;;;;;;;;;;17.20;44.44;100166.19;5044821;28;19977;-50
2021/12/24 01:52:53;;;;;;;;;;;;;;;17.21;44.50;100169.69;5042828;28;19942;-47
2021/12/24 01:55:18;;;;;;;;;;;;;;;17.20;44.36;100163.50;5044511;28;19936;-47
2021/12/24 01:57:43;;;;;;;;;;;;;;;17.20;44.40;100166.19;5044375;28;19913;-51
2021/12/24 02:00:10;;;;;;;;;;;;;;;17.20;44.48;100170.69;5044465;28;19917;-53
2021/12/24 02:02:35;;;;;;;;;;;;;;;17.18;44.41;100164.66;5043803;28;20066;-46
2021/12/24 02:05:00;;;;;;;;;;;;;;;17.18;44.35;100162.81;5044332;28;19917;-49
2021/12/24 02:07:26;;;;;;;;;;;;;;;17.18;44.36;100165.50;5044563;28;19913;-49
2021/12/24 02:09:53;;;;;;;;;;;;;;;17.17;44.51;100157.63;5044407;28;19917;-49
2021/12/24 02:12:18;;;;;;;;;;;;;;;17.18;44.55;100167.34;5043948;28;19917;-49
2021/12/24 02:14:48;;;;;;;;;;;;;;;17.17;44.39;100171.91;5043939;28;19925;-49
2021/12/24 02:30:45;;;;;;;;;;;;;;;17.16;44.45;100148.72;5043996;28;19920;-50
2021/12/24 02:33:10;;;;;;;;;;;;;;;17.17;44.44;100157.63;5043302;28;19957;-51
2021/12/24 02:35:35;;;;;;;;;;;;;;;17.16;44.42;100151.44;5043926;28;19913;-48
2021/12/24 02:38:00;;;;;;;;;;;;;;;17.16;44.42;100154.09;5043909;28;19917;-48
2021/12/24 02:40:26;;;;;;;;;;;;;;;17.15;44.49;100138.97;5059503;28;20281;-47
2021/12/24 02:42:54;;;;;;;;;;;;;;;17.15;44.54;100141.66;5043267;28;20385;-47
2021/12/24 02:45:19;;;;;;;;;;;;;;;17.15;44.46;100141.66;5043441;28;19913;-49
2021/12/24 02:55:28;;;;;;;;;;;;;;;17.14;44.46;100140.00;5043388;28;19935;-50
2021/12/24 02:57:53;;;;;;;;;;;;;;;17.13;44.48;100132.97;5041431;28;19917;-47
2021/12/24 03:00:25;;;;;;;;;;;;;;;17.14;44.60;100133.78;5043293;28;19924;-49
2021/12/24 03:02:51;;;;;;;;;;;;;;;17.14;44.47;100133.78;5035288;28;19976;-48
2021/12/24 03:05:17;;;;;;;;;;;;;;;17.13;44.59;100138.34;5023331;28;19914;-50
2021/12/24 03:07:42;;;;;;;;;;;;;;;17.14;44.60;100144.53;5023631;28;19913;-52
2021/12/24 03:10:12;;;;;;;;;;;;;;;17.13;44.53;100143.72;5023840;28;19920;-51
2021/12/24 03:12:38;;;;;;;;;;;;;;;17.13;44.44;100146.41;5037942;28;19913;-49
2021/12/24 03:15:04;;;;;;;;;;;;;;;17.13;44.48;100146.41;5043066;28;19928;-48
2021/12/24 03:17:31;;;;;;;;;;;;;;;17.14;44.33;100141.84;5037081;28;19952;-48
2021/12/24 03:20:01;;;;;;;;;;;;;;;17.13;44.52;100149.06;5023772;28;19917;-49
2021/12/24 03:22:43;;;;;;;;;;;;;;;17.14;44.70;100149.91;5031717;28;20001;-49
2021/12/24 03:25:08;;;;;;;;;;;;;;;17.13;44.56;100145.56;5042754;28;20649;-49
2021/12/24 03:27:33;;;;;;;;;;;;;;;17.12;44.51;100147.41;5042707;28;19913;-49
2021/12/24 03:29:59;;;;;;;;;;;;;;;17.12;44.60;100157.28;5042999;28;19984;-49
2021/12/24 03:32:24;;;;;;;;;;;;;;;17.12;44.69;100155.47;5042435;28;19913;-51
2021/12/24 03:34:49;;;;;;;;;;;;;;;17.12;44.58;100144.72;5042867;28;19913;-49
2021/12/24 03:37:15;;;;;;;;;;;;;;;17.12;44.72;100144.72;5043000;28;20014;-49
2021/12/24 03:39:40;;;;;;;;;;;;;;;17.12;44.74;100142.03;5042983;28;19913;-49
2021/12/24 03:42:05;;;;;;;;;;;;;;;17.12;44.72;100151.91;5042595;28;19925;-49
2021/12/24 03:44:40;;;;;;;;;;;;;;;17.12;44.61;100152.78;5042574;28;20008;-51
2021/12/24 03:47:15;;;;;;;;;;;;;;;17.11;44.74;100151.09;5042371;28;19956;-50
2021/12/24 03:49:54;;;;;;;;;;;;;;;17.11;44.70;100155.63;5042884;28;19963;-49
2021/12/24 03:54:58;;;;;;;;;;;;;;;17.11;44.87;100151.09;5042687;28;19927;-50
2021/12/24 03:57:23;;;;;;;;;;;;;;;17.11;44.81;100152.94;5042593;28;19913;-52
2021/12/24 03:59:48;;;;;;;;;;;;;;;17.11;44.69;100152.94;5042547;28;19966;-52
2021/12/24 04:02:14;;;;;;;;;;;;;;;17.11;44.65;100156.47;5041904;28;19921;-52
2021/12/24 04:04:39;;;;;;;;;;;;;;;17.10;44.76;100162.84;5042505;28;20573;-49
2021/12/24 04:07:04;;;;;;;;;;;;;;;17.10;44.84;100154.78;5042591;28;19913;-51
2021/12/24 04:09:31;;;;;;;;;;;;;;;17.09;44.75;100152.28;5042823;28;19917;-53
2021/12/24 04:11:56;;;;;;;;;;;;;;;17.10;44.90;100148.59;5042106;28;20381;-53
2021/12/24 04:14:21;;;;;;;;;;;;;;;17.10;44.76;100148.59;5042346;28;19917;-52
2021/12/24 04:16:46;;;;;;;;;;;;;;;17.09;44.96;100169.25;5043731;28;19921;-52
2021/12/24 04:19:25;;;;;;;;;;;;;;;17.10;44.97;100165.53;5046050;28;19932;-50
2021/12/24 04:24:52;;;;;;;;;;;;;;;17.10;44.83;100162.84;5046153;28;19979;-49
2021/12/24 04:27:17;;;;;;;;;;;;;;;17.10;44.76;100162.84;5046233;28;19913;-46
2021/12/24 04:29:42;;;;;;;;;;;;;;;17.10;44.75;100164.69;5046196;28;19920;-47
2021/12/24 04:32:15;;;;;;;;;;;;;;;17.09;44.80;100165.72;5045532;28;19939;-50
2021/12/24 04:34:45;;;;;;;;;;;;;;;17.10;44.79;100167.38;5046250;28;20312;-48
2021/12/24 04:39:55;;;;;;;;;;;;;;;17.10;44.93;100167.38;5052884;28;19960;-50
2021/12/24 05:04:02;;;;;;;;;;;;;;;17.09;44.84;100165.72;5051973;28;19913;-50
2021/12/24 05:06:33;;;;;;;;;;;;;;;17.10;44.96;100164.69;5045908;28;19920;-52
2021/12/24 05:09:06;;;;;;;;;;;;;;;17.10;45.03;100170.06;5052325;28;20389;-48
2021/12/24 05:11:31;;;;;;;;;;;;;;;17.09;45.03;100171.94;5045343;28;20860;-51
2021/12/24 05:13:56;;;;;;;;;;;;;;;17.10;44.89;100178.13;5045242;28;19936;-50
2021/12/24 05:16:26;;;;;;;;;;;;;;;17.09;44.99;100179.97;5045257;28;19987;-50
2021/12/24 05:21:42;;;;;;;;;;;;;;;17.08;45.00;100172.13;5022196;28;19921;-51
2021/12/24 05:24:10;;;;;;;;;;;;;;;17.09;44.83;100173.78;5045465;28;20066;-50
2021/12/24 05:26:35;;;;;;;;;;;;;;;17.09;44.94;100177.31;5044941;28;19921;-50
2021/12/24 05:29:01;;;;;;;;;;;;;;;17.09;45.01;100179.16;5043710;28;19923;-47
2021/12/24 05:31:26;;;;;;;;;;;;;;;17.09;44.93;100171.94;5045172;28;19971;-46
2021/12/24 05:33:51;;;;;;;;;;;;;;;17.09;45.20;100166.56;5044598;28;19932;-51
2021/12/24 05:36:17;;;;;;;;;;;;;;;17.09;45.07;100169.25;5045316;28;20016;-49
2021/12/24 05:38:43;;;;;;;;;;;;;;;17.10;44.96;100172.75;5044950;28;19935;-49
2021/12/24 05:41:08;;;;;;;;;;;;;;;17.09;45.16;100168.41;5045068;28;19919;-49
2021/12/24 05:43:34;;;;;;;;;;;;;;;17.09;45.29;100179.16;5044418;28;19956;-51
2021/12/24 05:45:59;;;;;;;;;;;;;;;17.09;45.10;100179.16;5045147;28;19967;-51
2021/12/24 05:48:24;;;;;;;;;;;;;;;17.10;45.12;100180.81;5044204;28;19913;-49
2021/12/24 05:50:49;;;;;;;;;;;;;;;17.11;45.34;100187.84;5044086;28;19947;-51
2021/12/24 05:53:14;;;;;;;;;;;;;;;17.10;45.16;100187.03;5059557;28;19921;-48
2021/12/24 05:55:39;;;;;;;;;;;;;;;17.10;45.14;100184.34;5043797;28;20076;-50
2021/12/24 05:58:08;;;;;;;;;;;;;;;17.11;45.18;100190.53;5044131;28;19958;-48
2021/12/24 06:00:38;;;;;;;;;;;;;;;17.12;45.26;100186.84;5044064;28;19920;-51
2021/12/24 06:03:03;;;;;;;;;;;;;;;17.11;45.45;100180.63;5040323;28;19949;-49
2021/12/24 06:05:28;;;;;;;;;;;;;;;17.13;45.65;100186.69;5044618;28;19936;-51
2021/12/24 06:07:53;;;;;;;;;;;;;;;17.13;45.29;100184.00;5044095;28;19925;-48
2021/12/24 06:10:19;;;;;;;;;;;;;;;17.14;45.54;100188.34;5043999;28;19920;-50
2021/12/24 06:12:44;;;;;;;;;;;;;;;17.15;45.42;100181.13;5042778;28;20077;-51
2021/12/24 06:15:09;;;;;;;;;;;;;;;17.15;45.46;100190.03;5043094;28;19940;-52
2021/12/24 06:17:37;;;;;;;;;;;;;;;17.16;45.71;100182.78;5042536;28;19921;-49
2021/12/24 06:20:03;;;;;;;;;;;;;;;17.16;45.68;100186.34;5041417;28;19917;-47
2021/12/24 06:22:29;;;;;;;;;;;;;;;17.17;45.70;100174.56;5043918;28;19920;-50
2021/12/24 06:24:54;;;;;;;;;;;;;;;17.17;45.88;100190.69;5043143;28;19921;-50
2021/12/24 06:27:19;;;;;;;;;;;;;;;17.19;45.95;100188.66;5040780;28;20325;-50
2021/12/24 06:29:44;;;;;;;;;;;;;;;17.19;45.91;100177.91;5043415;28;19913;-50
2021/12/24 06:32:09;;;;;;;;;;;;;;;17.19;45.81;100180.59;5043144;28;19917;-49
2021/12/24 06:34:34;;;;;;;;;;;;;;;17.21;45.86;100185.81;5043015;28;19920;-49
2021/12/24 06:36:59;;;;;;;;;;;;;;;17.21;45.85;100178.59;5043333;28;20550;-49
2021/12/24 06:39:25;;;;;;;;;;;;;;;17.21;46.00;100178.59;5042450;28;19913;-53
2021/12/24 06:41:50;;;;;;;;;;;;;;;17.22;45.92;100169.50;5043365;28;19955;-49
2021/12/24 06:44:15;;;;;;;;;;;;;;;17.23;46.06;100173.03;5042958;28;19913;-48
2021/12/24 06:46:42;;;;;;;;;;;;;;;17.24;46.01;100177.38;5043003;28;20321;-50
2021/12/24 06:49:07;;;;;;;;;;;;;;;17.25;46.10;100173.72;5042735;28;19913;-48
2021/12/24 06:51:33;;;;;;;;;;;;;;;17.26;46.05;100179.91;5043157;28;19913;-48
2021/12/24 06:53:58;;;;;;;;;;;;;;;17.26;46.15;100186.13;5042758;28;19913;-48
2021/12/24 06:56:23;;;;;;;;;;;;;;;17.27;46.09;100186.94;5042957;28;19913;-50
2021/12/24 06:58:48;;;;;;;;;;;;;;;17.28;46.08;100194.00;5042720;28;20022;-47
2021/12/24 07:01:13;;;;;;;;;;;;;;;17.28;46.28;100194.00;5042943;28;19913;-50
2021/12/24 07:03:39;;;;;;;;;;;;;;;17.28;46.30;100200.19;5028965;28;20025;-51
2021/12/24 07:06:04;;;;;;;;;;;;;;;17.30;46.20;100210.78;5023876;28;19937;-52
2021/12/24 07:08:29;;;;;;;;;;;;;;;17.29;46.36;100215.34;5023449;28;20263;-54
2021/12/24 07:10:55;;;;;;;;;;;;;;;17.31;46.37;100221.34;5033422;28;19940;-51
2021/12/24 07:13:20;;;;;;;;;;;;;;;17.30;46.21;100222.38;5043017;28;19917;-49
2021/12/24 07:15:45;;;;;;;;;;;;;;;17.20;46.26;100216.34;5042833;28;19921;-49
2021/12/24 07:18:10;;;;;;;;;;;;;;;17.30;46.05;100230.44;5042479;28;19984;-54
2021/12/24 07:20:35;;;;;;;;;;;;;;;17.30;46.35;100227.75;5042572;28;19971;-51
2021/12/24 07:23:01;;;;;;;;;;;;;;;17.30;46.25;100233.13;5042596;28;20405;-50
2021/12/24 07:25:26;;;;;;;;;;;;;;;17.30;46.20;100232.28;5042643;28;19924;-50
2021/12/24 07:27:51;;;;;;;;;;;;;;;17.30;46.44;100237.66;5042276;28;19925;-52
2021/12/24 07:30:18;;;;;;;;;;;;;;;17.30;46.24;100240.34;5043121;28;19913;-49
2021/12/24 07:32:43;;;;;;;;;;;;;;;17.30;46.18;100233.13;5042453;28;20026;-52
2021/12/24 07:35:09;;;;;;;;;;;;;;;17.30;46.24;100234.97;5042759;28;20456;-53
2021/12/24 07:37:34;;;;;;;;;;;;;;;17.31;46.41;100236.66;5043166;28;19920;-49
2021/12/24 07:40:02;;;;;;;;;;;;;;;17.29;46.25;100228.78;5042977;28;19920;-51
2021/12/24 07:42:27;;;;;;;;;;;;;;;17.29;46.24;100234.13;5042940;28;19917;-53
2021/12/24 07:44:52;;;;;;;;;;;;;;;17.30;46.33;100237.66;5042248;28;19914;-52
2021/12/24 07:47:27;;;;;;;;;;;;;;;17.30;46.27;100235.81;5042364;28;19940;-52
2021/12/24 07:50:00;;;;;;;;;;;;;;;17.30;46.20;100235.81;5042987;28;19917;-51
2021/12/24 07:52:25;;;;;;;;;;;;;;;17.30;46.31;100245.72;5042427;28;19920;-52
2021/12/24 07:54:54;;;;;;;;;;;;;;;17.29;46.25;100236.81;5041993;28;19921;-49
2021/12/24 07:57:19;;;;;;;;;;;;;;;17.30;46.29;100241.19;5042838;28;19967;-49
2021/12/24 07:59:44;;;;;;;;;;;;;;;17.30;46.18;100246.56;5042421;28;19921;-47
2021/12/24 08:02:11;;;;;;;;;;;;;;;17.31;46.15;100245.53;5041988;28;19978;-52
2021/12/24 08:04:37;;;;;;;;;;;;;;;17.31;46.24;100242.00;5042390;28;19913;-51
2021/12/24 08:07:02;;;;;;;;;;;;;;;17.30;46.24;100238.50;5042687;28;20282;-49
2021/12/24 08:09:28;;;;;;;;;;;;;;;17.31;46.27;100253.59;5042772;28;19967;-50
2021/12/24 08:11:53;;;;;;;;;;;;;;;17.31;46.05;100242.00;5042499;28;19913;-50
2021/12/24 08:14:18;;;;;;;;;;;;;;;17.32;46.20;100247.22;5042455;28;19924;-47
2021/12/24 08:16:44;;;;;;;;;;;;;;;17.32;46.10;100249.06;5041993;28;19925;-49
2021/12/24 08:19:09;;;;;;;;;;;;;;;17.32;46.10;100252.56;5042461;28;19913;-50
2021/12/24 08:21:34;;;;;;;;;;;;;;;17.32;46.10;100244.50;5042564;28;19932;-50
2021/12/24 08:24:00;;;;;;;;;;;;;;;17.33;46.07;100246.22;5042466;28;19920;-51
2021/12/24 08:26:25;;;;;;;;;;;;;;;17.33;45.99;100235.47;5041573;28;19921;-50
2021/12/24 08:28:51;;;;;;;;;;;;;;;17.35;46.00;100235.28;5042315;28;20417;-52
2021/12/24 08:31:16;;;;;;;;;;;;;;;17.37;45.97;100230.56;5041478;28;19940;-49
2021/12/24 08:33:41;;;;;;;;;;;;;;;17.38;45.97;100233.09;5041017;28;19929;-48
2021/12/24 08:36:07;;;;;;;;;;;;;;;17.42;45.96;100234.41;5041823;28;19921;-49
2021/12/24 08:38:32;;;;;;;;;;;;;;;17.43;46.12;100229.88;5041942;28;19917;-52
2021/12/24 08:40:57;;;;;;;;;;;;;;;17.45;46.07;100230.53;5041850;28;19913;-50
2021/12/24 08:43:23;;;;;;;;;;;;;;;17.46;46.07;100226.84;5041502;28;19917;-51
2021/12/24 08:45:48;;;;;;;;;;;;;;;17.47;45.93;100228.50;5041384;28;19913;-52
2021/12/24 08:48:13;;;;;;;;;;;;;;;17.47;46.07;100220.44;5040363;28;19924;-50
2021/12/24 08:50:38;;;;;;;;;;;;;;;17.48;46.03;100214.88;5041103;28;19913;-53
2021/12/24 08:53:03;;;;;;;;;;;;;;;17.49;45.83;100213.88;5041106;28;19913;-50
2021/12/24 08:55:29;;;;;;;;;;;;;;;17.52;46.21;100211.84;5040698;28;19920;-53
2021/12/24 08:57:54;;;;;;;;;;;;;;;17.53;46.17;100202.78;5041162;28;19917;-53
2021/12/24 09:00:21;;;;;;;;;;;;;;;17.55;45.90;100203.44;5041453;28;19939;-52
2021/12/24 09:02:46;;;;;;;;;;;;;;;17.57;46.14;100204.09;5042071;28;19917;-50
2021/12/24 09:05:13;;;;;;;;;;;;;;;17.58;46.05;100201.22;5044074;28;19943;-51
2021/12/24 09:07:38;;;;;;;;;;;;;;;17.58;46.00;100201.22;5044223;28;19917;-49
2021/12/24 09:10:04;;;;;;;;;;;;;;;17.61;46.24;100200.03;5045118;28;20328;-50
2021/12/24 09:12:29;;;;;;;;;;;;;;;17.63;46.01;100206.94;5044966;28;19925;-52
2021/12/24 09:14:54;;;;;;;;;;;;;;;17.64;46.15;100202.38;5043452;28;19917;-51
2021/12/24 09:17:20;;;;;;;;;;;;;;;17.65;46.17;100204.88;5042066;28;19925;-52
2021/12/24 09:19:48;;;;;;;;;;;;;;;17.66;46.08;100203.03;5045036;28;19913;-52
2021/12/24 09:22:17;;;;;;;;;;;;;;;17.66;46.22;100206.53;5044993;28;19917;-52
2021/12/24 09:24:43;;;;;;;;;;;;;;;17.69;46.12;100213.44;5044793;28;19963;-51
2021/12/24 09:27:08;;;;;;;;;;;;;;;17.70;46.06;100198.97;5042142;28;20282;-53
2021/12/24 09:29:33;;;;;;;;;;;;;;;17.70;45.90;100199.81;5044381;28;20392;-53
2021/12/24 09:31:58;;;;;;;;;;;;;;;17.70;46.07;100198.97;5044674;28;19938;-49
2021/12/24 09:34:24;;;;;;;;;;;;;;;17.70;46.05;100197.13;5042386;28;19988;-48
2021/12/24 09:36:49;;;;;;;;;;;;;;;17.71;46.12;100198.81;5044935;28;19948;-53
2021/12/24 09:39:14;;;;;;;;;;;;;;;17.71;46.13;100196.13;5045031;28;19948;-54
2021/12/24 09:41:39;;;;;;;;;;;;;;;17.71;45.96;100209.56;5043732;28;19921;-55
2021/12/24 09:44:04;;;;;;;;;;;;;;;17.72;46.08;100203.16;5029631;28;19917;-56
2021/12/24 09:46:30;;;;;;;;;;;;;;;17.72;46.16;100200.47;5036532;28;19939;-50
2021/12/24 09:48:55;;;;;;;;;;;;;;;17.74;46.20;100209.22;5036196;28;19924;-52
2021/12/24 09:51:23;;;;;;;;;;;;;;;17.76;46.35;100205.53;5041608;28;19917;-51
2021/12/24 09:53:48;;;;;;;;;;;;;;;17.77;46.28;100205.34;5042448;28;19917;-48
2021/12/24 09:56:14;;;;;;;;;;;;;;;17.78;46.21;100209.69;5041986;28;20044;-50
2021/12/24 09:58:39;;;;;;;;;;;;;;;17.79;46.16;100205.16;5042421;28;19913;-52
2021/12/24 10:01:04;;;;;;;;;;;;;;;17.80;46.37;100196.94;5036916;28;19944;-53
2021/12/24 10:03:31;;;;;;;;;;;;;;;17.81;46.37;100205.84;5036105;28;20539;-50
2021/12/24 10:05:56;;;;;;;;;;;;;;;17.82;46.45;100207.50;5038393;28;19948;-49
2021/12/24 10:08:22;;;;;;;;;;;;;;;17.83;46.20;100204.63;5038920;28;19925;-52
2021/12/24 10:10:49;;;;;;;;;;;;;;;17.84;46.41;100210.84;5041784;28;19913;-50
2021/12/24 10:13:28;;;;;;;;;;;;;;;17.85;46.44;100213.38;5040072;28;20370;-50
2021/12/24 10:15:58;;;;;;;;;;;;;;;17.87;46.26;100214.00;5041668;28;19921;-48
2021/12/24 10:18:28;;;;;;;;;;;;;;;17.88;46.40;100210.31;5034922;28;19917;-48
2021/12/24 10:21:00;;;;;;;;;;;;;;;17.90;46.52;100218.22;5041884;28;19913;-44
2021/12/24 10:23:41;;;;;;;;;;;;;;;17.92;46.52;100216.16;5035507;28;19975;-48
2021/12/24 10:26:11;;;;;;;;;;;;;;;17.95;46.52;100224.72;5032677;28;20349;-49
2021/12/24 10:28:36;;;;;;;;;;;;;;;17.95;46.57;100221.19;5039260;28;19921;-51
2021/12/24 10:31:01;;;;;;;;;;;;;;;17.96;46.54;100215.63;5039379;28;19936;-48
2021/12/24 10:33:26;;;;;;;;;;;;;;;17.99;46.41;100214.44;5036507;28;19955;-46
2021/12/24 10:36:00;;;;;;;;;;;;;;;18.01;46.35;100212.41;5047814;28;20481;-49
2021/12/24 10:38:25;;;;;;;;;;;;;;;17.93;46.51;100190.97;5042876;28;19917;-52
2021/12/24 10:40:55;;;;;;;;;;;;;;;18.06;46.42;100204.63;5037346;28;19913;-50
2021/12/24 10:43:25;;;;;;;;;;;;;;;18.08;46.54;100201.75;5040899;28;19921;-48
2021/12/24 10:46:07;;;;;;;;;;;;;;;18.09;46.38;100201.56;5041347;28;20396;-52
2021/12/24 10:48:32;;;;;;;;;;;;;;;18.12;46.56;100203.06;5035392;28;19932;-48
2021/12/24 10:51:05;;;;;;;;;;;;;;;17.92;46.30;100162.38;5040973;28;19913;-42
2021/12/24 10:53:34;;;;;;;;;;;;;;;18.16;46.23;100204.38;5029472;28;19973;-48
2021/12/24 10:56:00;;;;;;;;;;;;;;;18.18;46.45;100213.09;5029796;28;19940;-50
2021/12/24 10:58:25;;;;;;;;;;;;;;;18.20;46.24;100200.31;5037949;28;19980;-48
2021/12/24 11:00:52;;;;;;;;;;;;;;;18.23;46.12;100205.34;5037183;28;19980;-52
2021/12/24 11:03:21;;;;;;;;;;;;;;;18.25;46.20;100200.59;5038336;28;19925;-44
2021/12/24 11:05:47;;;;;;;;;;;;;;;18.26;46.05;100202.28;5033759;28;19920;-51
2021/12/24 11:08:13;;;;;;;;;;;;;;;18.27;46.13;100206.66;5033010;28;19939;-49
2021/12/24 11:10:40;;;;;;;;;;;;;;;18.28;46.07;100204.81;5041089;28;19935;-53
2021/12/24 11:13:09;;;;;;;;;;;;;;;18.29;46.13;100199.22;5034494;28;19925;-51
2021/12/24 11:16:02;;;;;;;;;;;;;;;18.29;45.98;100204.59;5036196;28;20000;-54
2021/12/24 11:18:32;;;;;;;;;;;;;;;18.30;46.12;100208.13;5029194;28;19928;-53
2021/12/24 11:21:01;;;;;;;;;;;;;;;18.30;46.12;100213.50;5033624;28;20281;-48
2021/12/24 11:23:27;;;;;;;;;;;;;;;18.30;45.96;100211.66;5039852;28;19979;-48
2021/12/24 11:25:54;;;;;;;;;;;;;;;18.31;46.02;100201.72;5040383;28;19929;-53
2021/12/24 11:28:19;;;;;;;;;;;;;;;18.31;46.04;100204.41;5040837;28;19913;-52
2021/12/24 11:30:47;;;;;;;;;;;;;;;18.32;45.97;100206.94;5040731;28;19962;-52
2021/12/24 11:33:13;;;;;;;;;;;;;;;18.32;45.96;100206.94;5032482;28;19921;-52
2021/12/24 11:35:38;;;;;;;;;;;;;;;18.33;45.91;100211.31;5038534;28;19923;-50
2021/12/24 11:38:03;;;;;;;;;;;;;;;18.33;45.97;100219.38;5036356;28;19917;-51
2021/12/24 11:40:28;;;;;;;;;;;;;;;18.33;45.78;100211.31;5052049;28;19921;-47
2021/12/24 11:42:58;;;;;;;;;;;;;;;18.33;45.98;100210.47;5035761;28;19921;-52
2021/12/24 11:45:24;;;;;;;;;;;;;;;18.33;45.84;100211.31;5034303;28;20063;-50
2021/12/24 11:47:50;;;;;;;;;;;;;;;18.34;46.02;100210.28;5036270;28;20459;-50
2021/12/24 11:50:16;;;;;;;;;;;;;;;18.34;45.97;100207.59;5034431;28;19913;-48
2021/12/24 11:52:41;;;;;;;;;;;;;;;18.36;46.06;100199.34;5037202;28;19917;-52
2021/12/24 11:55:06;;;;;;;;;;;;;;;18.37;45.79;100195.63;5035306;28;20443;-50
2021/12/24 11:57:31;;;;;;;;;;;;;;;18.39;45.81;100197.13;5037478;28;19921;-50
2021/12/24 11:59:57;;;;;;;;;;;;;;;18.41;45.98;100187.00;5036940;28;19913;-49
2021/12/24 12:02:41;;;;;;;;;;;;;;;18.44;45.76;100197.41;5033983;28;19925;-52
2021/12/24 12:05:10;;;;;;;;;;;;;;;18.46;45.89;100191.84;5034963;28;19976;-52
2021/12/24 12:07:35;;;;;;;;;;;;;;;18.46;45.67;100189.97;5033933;28;19965;-50
2021/12/24 12:10:03;;;;;;;;;;;;;;;18.48;45.85;100185.25;5040393;28;19918;-50
2021/12/24 12:12:32;;;;;;;;;;;;;;;18.47;45.71;100186.25;5034488;28;20681;-46
2021/12/24 12:15:17;;;;;;;;;;;;;;;18.47;45.71;100183.56;5036824;28;19935;-50
2021/12/24 12:17:50;;;;;;;;;;;;;;;18.49;45.75;100188.78;5024626;28;19979;-48
2021/12/24 12:20:35;;;;;;;;;;;;;;;18.49;45.84;100183.41;5040383;28;19920;-51
2021/12/24 12:23:01;;;;;;;;;;;;;;;18.49;45.72;100192.31;5026014;28;19917;-51
2021/12/24 12:25:31;;;;;;;;;;;;;;;18.50;45.72;100190.47;5049036;28;19917;-49
2021/12/24 12:27:56;;;;;;;;;;;;;;;18.51;45.81;100185.91;5028819;28;19924;-50
2021/12/24 12:30:23;;;;;;;;;;;;;;;18.51;45.65;100191.28;5039861;28;19913;-50
2021/12/24 12:32:49;;;;;;;;;;;;;;;18.50;45.96;100185.06;5032752;28;19933;-47
2021/12/24 12:35:14;;;;;;;;;;;;;;;18.51;45.84;100191.28;5033774;28;19913;-51
2021/12/24 12:37:40;;;;;;;;;;;;;;;18.50;45.87;100195.84;5035975;28;19913;-51
2021/12/24 12:40:12;;;;;;;;;;;;;;;18.49;46.08;100194.19;5038706;28;19963;-51
2021/12/24 12:43:00;;;;;;;;;;;;;;;18.50;45.97;100193.16;5035737;28;19917;-51
2021/12/24 12:45:35;;;;;;;;;;;;;;;18.50;45.97;100193.16;5036910;28;19984;-48
2021/12/24 12:48:04;;;;;;;;;;;;;;;18.51;45.95;100189.44;5038573;28;19917;-49
2021/12/24 12:50:29;;;;;;;;;;;;;;;18.52;46.10;100195.66;5038694;28;19918;-45
2021/12/24 12:53:13;;;;;;;;;;;;;;;18.53;46.03;100187.41;5041474;28;19913;-48
2021/12/24 12:55:40;;;;;;;;;;;;;;;18.54;45.96;100190.94;5036389;28;19913;-49
2021/12/24 12:58:21;;;;;;;;;;;;;;;18.54;46.07;100194.44;5037019;28;19943;-49
2021/12/24 13:01:05;;;;;;;;;;;;;;;18.53;46.17;100200.03;5038194;28;19960;-47
2021/12/24 13:03:31;;;;;;;;;;;;;;;18.53;46.21;100198.19;5041723;28;19929;-45
2021/12/24 13:06:00;;;;;;;;;;;;;;;18.53;46.22;100198.19;5036255;28;20275;-48
2021/12/24 13:08:29;;;;;;;;;;;;;;;18.54;46.11;100199.00;5026849;28;19921;-45
2021/12/24 13:10:54;;;;;;;;;;;;;;;18.55;46.14;100200.66;5037708;28;19937;-50
2021/12/24 13:13:20;;;;;;;;;;;;;;;18.55;46.21;100196.13;5042338;28;19928;-48
2021/12/24 13:15:45;;;;;;;;;;;;;;;18.56;46.43;100200.47;5052018;28;19921;-53
2021/12/24 13:18:34;;;;;;;;;;;;;;;18.57;46.21;100207.56;5036971;28;19921;-46
2021/12/24 13:23:30;;;;;;;;;;;;;;;18.59;46.24;100204.66;5034695;28;19953;-45
2021/12/24 13:25:55;;;;;;;;;;;;;;;18.59;46.33;100208.19;5035454;28;19913;-52
2021/12/24 13:28:20;;;;;;;;;;;;;;;18.61;46.25;100208.03;5033144;28;19924;-48
2021/12/24 13:30:45;;;;;;;;;;;;;;;18.61;46.52;100206.16;5042786;28;19951;-52
2021/12/24 13:33:11;;;;;;;;;;;;;;;18.63;46.56;100206.81;5032805;28;19960;-49
2021/12/24 13:35:41;;;;;;;;;;;;;;;18.64;46.34;100215.72;5033892;28;19913;-46
2021/12/24 13:38:18;;;;;;;;;;;;;;;18.65;46.31;100214.72;5034647;28;19921;-45
2021/12/24 13:40:43;;;;;;;;;;;;;;;18.66;46.44;100224.47;5041290;28;19946;-47
2021/12/24 13:43:12;;;;;;;;;;;;;;;18.66;46.24;100217.22;5036396;28;19922;-48
2021/12/24 13:45:38;;;;;;;;;;;;;;;18.68;46.64;100222.41;5041075;28;19937;-50
2021/12/24 13:48:10;;;;;;;;;;;;;;;18.69;46.53;100224.06;5030819;28;19921;-50
2021/12/24 13:56:05;;;;;;;;;;;;;;;18.73;46.45;100234.34;5042383;28;19919;-49
2021/12/24 13:58:31;;;;;;;;;;;;;;;18.73;46.67;100230.81;5040497;28;19940;-48
2021/12/24 14:00:57;;;;;;;;;;;;;;;18.74;46.46;100232.50;5042743;28;19924;-48
2021/12/24 14:03:30;;;;;;;;;;;;;;;18.75;46.52;100236.84;5030494;28;19921;-51
2021/12/24 14:05:57;;;;;;;;;;;;;;;18.77;46.53;100239.34;5042332;28;20367;-52
2021/12/24 14:08:26;;;;;;;;;;;;;;;18.77;46.75;100244.75;5039307;28;19995;-53
2021/12/24 14:11:05;;;;;;;;;;;;;;;18.77;46.81;100236.66;5038721;28;19944;-48
2021/12/24 14:13:35;;;;;;;;;;;;;;;18.76;46.69;100243.91;5034468;28;20385;-48
2021/12/24 14:16:10;;;;;;;;;;;;;;;18.77;46.75;100242.03;5038208;28;19932;-47